Wilmore, Pennsylvania
Current Conditions -  °F | °C
As of 7:54 AM on Friday 19 Dec 2014 (Local Time) from KJST Reporting Station
Haze Haze  
Wind Chill: 12°   Ceiling: 600
Heat Index: 24°   Visibility: 5mi
Dew Point: 21°   Wind: 14mph
Humidity: 88%   Direction: 280°W
Pressure: 30.07"   Gusts: NA
Location:  40.39°N, 78.72°W
Report Text: KJST 191254Z AUTO 28012KT 5SM BR OVC006 M04/M06 A3007 RMK AO2 CIG 004V012 SLP215 I1000 T10441061
Loading
Personal Weather Stations






























Interactive Weather Map New forecast layout! Learn more

10-Day Weather Forecast

Advertisements
Track Severe Weather on mobile